Time;durP1;ratioP1;P1;durP2;ratioP2;P2;SDS_P1;SDS_P2;PMS_P1;PMS_P2;Temp;Humidity;BMP_temperature;BMP_pressure;BME280_temperature;BME280_humidity;BME280_pressure;Samples;Min_cycle;Max_cycle;Signal;HPM_P1;HPM_P2
2022/06/20 00:01:49;;;;;;;6.07;2.13;;;20.50;99.90;;;;;;5011177;28;20206;-72
2022/06/20 00:04:19;;;;;;;6.97;1.77;;;20.50;99.90;;;;;;5010879;28;20218;-71
2022/06/20 00:06:46;;;;;;;4.70;2.00;;;20.50;99.90;;;;;;5011211;28;20297;-71
2022/06/20 00:09:13;;;;;;;2.37;1.90;;;20.40;99.90;;;;;;5010491;28;20744;-71
2022/06/20 00:11:56;;;;;;;6.23;2.07;;;20.20;99.90;;;;;;5009723;28;20208;-71
2022/06/20 00:14:23;;;;;;;4.80;2.50;;;20.20;99.90;;;;;;4999466;28;20210;-71
2022/06/20 00:16:51;;;;;;;5.17;2.20;;;20.30;99.90;;;;;;5002722;28;20209;-71
2022/06/20 00:19:17;;;;;;;3.53;2.10;;;20.20;99.90;;;;;;4991097;28;20213;-72
2022/06/20 00:21:45;;;;;;;4.93;2.20;;;20.20;99.90;;;;;;4991211;28;20210;-72
2022/06/20 00:24:11;;;;;;;3.83;2.23;;;20.30;99.90;;;;;;5024538;28;20205;-71
2022/06/20 00:26:39;;;;;;;4.03;2.30;;;20.20;99.90;;;;;;5030370;28;20219;-71
2022/06/20 00:29:08;;;;;;;5.93;2.37;;;20.20;99.90;;;;;;5029986;28;20601;-71
2022/06/20 00:31:36;;;;;;;4.57;2.07;;;20.20;99.90;;;;;;5012672;28;20233;-71
2022/06/20 00:34:03;;;;;;;2.80;1.83;;;20.30;99.90;;;;;;5010515;28;20301;-71
2022/06/20 00:36:30;;;;;;;5.10;2.03;;;20.30;99.90;;;;;;5010248;28;20213;-71
2022/06/20 00:38:57;;;;;;;3.33;1.90;;;20.40;99.90;;;;;;5010201;28;20241;-71
2022/06/20 00:41:27;;;;;;;3.43;2.10;;;20.40;99.90;;;;;;5009795;28;20237;-71
2022/06/20 00:43:55;;;;;;;4.27;2.20;;;20.30;99.90;;;;;;5005477;28;20301;-72
2022/06/20 00:46:59;;;;;;;3.90;1.97;;;20.30;99.90;;;;;;4994720;28;20201;-72
2022/06/20 00:49:31;;;;;;;3.53;2.23;;;20.30;99.90;;;;;;4987837;28;20269;-72
2022/06/20 00:52:03;;;;;;;3.87;2.10;;;20.40;99.90;;;;;;4990746;28;20209;-72
2022/06/20 00:54:35;;;;;;;3.57;2.03;;;20.30;99.90;;;;;;4989901;28;20248;-72
2022/06/20 00:57:06;;;;;;;4.13;2.00;;;20.30;99.90;;;;;;5005799;28;20206;-72
2022/06/20 00:59:37;;;;;;;3.53;1.80;;;20.30;99.90;;;;;;5009914;28;20208;-72
2022/06/20 01:02:06;;;;;;;2.27;1.80;;;20.40;99.90;;;;;;5010115;28;20366;-72
2022/06/20 01:04:40;;;;;;;6.60;2.37;;;20.40;99.90;;;;;;5009795;28;20220;-72
2022/06/20 01:07:11;;;;;;;4.83;2.00;;;20.40;99.90;;;;;;5009686;28;20198;-72
2022/06/20 01:09:43;;;;;;;4.23;2.10;;;20.30;99.90;;;;;;5009415;28;20228;-72
2022/06/20 01:12:13;;;;;;;3.77;2.17;;;20.30;99.90;;;;;;5009887;28;20194;-72
2022/06/20 01:14:40;;;;;;;7.07;2.37;;;20.20;99.90;;;;;;4999367;28;20218;-72
2022/06/20 01:17:15;;;;;;;4.80;2.40;;;20.10;99.90;;;;;;4989893;28;20229;-72
2022/06/20 01:19:49;;;;;;;3.17;2.23;;;20.10;99.90;;;;;;4989945;28;20569;-72
2022/06/20 01:22:41;;;;;;;4.93;2.40;;;20.00;99.90;;;;;;4990218;28;20298;-72
2022/06/20 01:25:37;;;;;;;5.03;2.30;;;19.90;99.90;;;;;;5009425;28;20206;-72
2022/06/20 01:28:08;;;;;;;3.67;2.17;;;20.00;99.90;;;;;;4986827;28;20209;-72
2022/06/20 01:30:40;;;;;;;3.03;2.10;;;20.00;99.90;;;;;;5009195;28;20221;-72
2022/06/20 01:33:07;;;;;;;5.80;2.03;;;19.90;99.90;;;;;;5009510;28;20206;-73
2022/06/20 01:38:19;;;;;;;2.80;2.30;;;19.80;99.90;;;;;;4989110;28;20241;-73
2022/06/20 01:43:30;;;;;;;4.73;2.47;;;19.60;99.90;;;;;;4989057;28;20763;-73
2022/06/20 01:45:58;;;;;;;4.77;2.67;;;19.70;99.90;;;;;;5004412;28;20201;-73
2022/06/20 01:48:29;;;;;;;4.97;2.60;;;19.70;99.90;;;;;;5008689;28;20687;-73
2022/06/20 01:50:57;;;;;;;5.37;2.20;;;19.60;99.90;;;;;;5009153;28;20229;-73
2022/06/20 01:53:29;;;;;;;5.50;2.80;;;19.60;99.90;;;;;;5008622;28;20566;-73
2022/06/20 01:55:57;;;;;;;5.37;2.80;;;19.60;99.90;;;;;;5009115;28;20198;-73
2022/06/20 01:58:31;;;;;;;5.30;2.90;;;19.50;99.90;;;;;;5008659;28;20645;-73
2022/06/20 02:00:59;;;;;;;5.43;2.80;;;19.50;99.90;;;;;;5008792;28;20213;-73
2022/06/20 02:03:26;;;;;;;4.07;2.20;;;19.50;99.90;;;;;;5008946;28;20218;-73
2022/06/20 02:05:56;;;;;;;4.33;2.37;;;19.60;99.90;;;;;;5009176;28;20213;-73
2022/06/20 02:08:26;;;;;;;3.23;2.20;;;19.60;99.90;;;;;;5008532;28;20300;-72
2022/06/20 02:10:57;;;;;;;4.03;2.30;;;19.60;99.90;;;;;;5008666;28;20711;-72
2022/06/20 02:13:28;;;;;;;4.97;2.43;;;19.60;99.90;;;;;;5008751;28;20197;-73
2022/06/20 02:16:00;;;;;;;4.27;2.23;;;19.60;99.90;;;;;;5007681;28;20235;-73
2022/06/20 02:18:29;;;;;;;4.10;2.17;;;19.60;99.90;;;;;;4988858;28;20198;-73
2022/06/20 02:21:00;;;;;;;4.13;2.43;;;19.60;99.90;;;;;;4988877;28;20224;-73
2022/06/20 02:23:31;;;;;;;4.20;2.27;;;19.60;99.90;;;;;;4999345;28;20300;-73
2022/06/20 02:25:59;;;;;;;2.73;2.20;;;19.60;99.90;;;;;;5008346;28;20285;-73
2022/06/20 02:28:34;;;;;;;4.17;2.30;;;19.60;99.90;;;;;;5007955;28;20224;-74
2022/06/20 02:31:04;;;;;;;3.37;2.20;;;19.60;99.90;;;;;;5008441;28;20224;-74
2022/06/20 02:33:32;;;;;;;6.23;2.20;;;19.60;99.90;;;;;;5008405;28;20212;-73
2022/06/20 02:36:01;;;;;;;3.80;2.13;;;19.60;99.90;;;;;;5008825;28;20300;-74
2022/06/20 02:38:29;;;;;;;3.40;2.00;;;19.70;99.90;;;;;;5008145;28;20230;-72
2022/06/20 02:40:58;;;;;;;4.60;2.03;;;19.60;99.90;;;;;;5008081;28;20267;-72
2022/06/20 02:43:30;;;;;;;4.17;2.17;;;19.60;99.90;;;;;;5008129;28;20205;-72
2022/06/20 02:45:58;;;;;;;3.00;2.40;;;19.60;99.90;;;;;;5008340;28;20197;-72
2022/06/20 02:48:29;;;;;;;4.30;2.10;;;19.60;99.90;;;;;;5008267;28;20201;-72
2022/06/20 02:51:00;;;;;;;5.17;2.57;;;19.60;99.90;;;;;;5008156;28;20235;-72
2022/06/20 02:53:33;;;;;;;5.53;2.67;;;19.60;99.90;;;;;;5007820;28;20209;-72
2022/06/20 02:56:01;;;;;;;4.20;2.53;;;19.60;99.90;;;;;;5008295;28;20201;-72
2022/06/20 02:58:31;;;;;;;3.60;2.47;;;19.60;99.90;;;;;;5008135;28;20684;-72
2022/06/20 03:01:05;;;;;;;2.93;2.57;;;19.60;99.90;;;;;;5008299;28;20568;-72
2022/06/20 03:03:36;;;;;;;6.30;2.73;;;19.50;99.90;;;;;;5008289;28;20193;-72
2022/06/20 03:06:38;;;;;;;6.73;2.93;;;19.50;99.90;;;;;;5008339;28;20190;-74
2022/06/20 03:09:05;;;;;;;4.13;2.93;;;19.50;99.90;;;;;;5008145;28;20204;-71
2022/06/20 03:11:47;;;;;;;4.07;3.10;;;19.50;99.90;;;;;;5007924;28;20237;-72
2022/06/20 03:14:16;;;;;;;5.87;3.37;;;19.50;99.90;;;;;;5008211;28;20230;-70
2022/06/20 03:20:11;;;;;;;5.27;2.83;;;19.60;99.90;;;;;;5000889;28;20674;-71
2022/06/20 03:22:43;;;;;;;3.70;2.63;;;19.50;99.90;;;;;;5005950;28;20209;-71
2022/06/20 03:25:13;;;;;;;3.93;2.77;;;19.50;99.90;;;;;;5005800;28;20208;-71
2022/06/20 03:27:40;;;;;;;5.07;2.10;;;19.40;99.90;;;;;;5005606;28;20218;-71
2022/06/20 03:30:24;;;;;;;4.73;2.57;;;19.40;99.90;;;;;;5005249;28;20589;-71
2022/06/20 03:32:51;;;;;;;3.77;2.53;;;19.40;99.90;;;;;;5005410;28;20190;-71
2022/06/20 03:35:20;;;;;;;2.57;2.30;;;19.40;99.90;;;;;;5005387;28;20205;-71
2022/06/20 03:37:47;;;;;;;4.33;2.80;;;19.30;99.90;;;;;;5005238;28;20236;-71
2022/06/20 03:40:15;;;;;;;4.70;2.30;;;19.30;99.90;;;;;;5005092;28;20248;-71
2022/06/20 03:42:42;;;;;;;2.93;2.63;;;19.30;99.90;;;;;;5005442;28;20573;-71
2022/06/20 03:45:10;;;;;;;3.73;2.63;;;19.30;99.90;;;;;;5005605;28;20664;-71
2022/06/20 03:47:42;;;;;;;3.60;2.27;;;19.30;99.90;;;;;;4993783;28;20210;-71
2022/06/20 03:50:14;;;;;;;3.17;2.40;;;19.30;99.90;;;;;;4990405;28;20229;-71
2022/06/20 03:52:48;;;;;;;5.43;2.40;;;19.30;99.90;;;;;;4989990;28;20202;-72
2022/06/20 03:55:18;;;;;;;3.80;2.33;;;19.30;99.90;;;;;;4989442;28;20204;-71
2022/06/20 03:57:50;;;;;;;4.50;2.67;;;19.30;99.90;;;;;;4989051;28;20198;-71
2022/06/20 04:00:20;;;;;;;3.83;2.43;;;19.30;99.90;;;;;;4991598;28;20591;-72
2022/06/20 04:02:51;;;;;;;3.80;2.40;;;19.20;99.90;;;;;;5017689;28;20213;-72
2022/06/20 04:05:23;;;;;;;3.17;2.60;;;19.20;99.90;;;;;;5010678;28;20304;-72
2022/06/20 04:07:58;;;;;;;3.93;2.50;;;19.20;99.90;;;;;;5010389;28;20193;-72
2022/06/20 04:13:19;;;;;;;4.40;2.40;;;19.20;99.90;;;;;;4994687;28;20283;-72
2022/06/20 04:15:50;;;;;;;4.27;2.60;;;19.30;99.90;;;;;;5010819;28;20206;-72
2022/06/20 04:18:30;;;;;;;3.23;2.50;;;19.30;99.90;;;;;;5018886;28;20210;-72
2022/06/20 04:21:04;;;;;;;5.10;2.87;;;19.30;99.90;;;;;;5003277;28;20323;-72
2022/06/20 04:23:40;;;;;;;5.10;2.90;;;19.40;99.90;;;;;;5002069;28;20193;-71
2022/06/20 04:26:26;;;;;;;6.40;3.00;;;19.50;99.90;;;;;;4999336;28;20645;-72
2022/06/20 04:28:58;;;;;;;4.13;2.70;;;19.50;99.90;;;;;;5002589;28;20271;-72
2022/06/20 04:34:36;;;;;;;4.03;2.47;;;19.60;99.90;;;;;;4995651;28;20228;-72
2022/06/20 04:37:30;;;;;;;7.10;2.23;;;19.60;99.90;;;;;;5002957;28;20206;-72
2022/06/20 04:40:03;;;;;;;3.57;2.60;;;19.50;99.90;;;;;;4999505;28;20628;-72
2022/06/20 04:42:40;;;;;;;3.57;2.60;;;19.50;99.90;;;;;;5002146;28;20281;-72
2022/06/20 04:45:14;;;;;;;5.23;2.60;;;19.40;99.90;;;;;;5002154;28;20202;-72
2022/06/20 04:47:45;;;;;;;6.17;2.80;;;19.40;99.90;;;;;;5002804;28;20554;-72
2022/06/20 04:50:17;;;;;;;4.10;2.90;;;19.40;99.90;;;;;;5000220;28;20226;-71
2022/06/20 04:52:46;;;;;;;4.20;2.70;;;19.30;99.90;;;;;;4998162;28;20191;-72
2022/06/20 04:55:17;;;;;;;4.47;2.63;;;19.30;99.90;;;;;;5002753;28;20206;-72
2022/06/20 04:57:44;;;;;;;4.27;2.63;;;19.30;99.90;;;;;;4998268;28;20190;-71
2022/06/20 05:00:19;;;;;;;3.93;2.80;;;19.30;99.90;;;;;;5003254;28;20214;-70
2022/06/20 05:02:46;;;;;;;3.90;3.20;;;19.20;99.90;;;;;;5001029;28;20363;-72
2022/06/20 05:05:18;;;;;;;3.60;3.10;;;19.10;99.90;;;;;;5003162;28;20206;-72
2022/06/20 05:07:47;;;;;;;4.40;2.80;;;19.10;99.90;;;;;;4998667;28;20194;-71
2022/06/20 05:10:20;;;;;;;5.30;2.93;;;19.10;99.90;;;;;;5001141;28;20229;-71
2022/06/20 05:12:53;;;;;;;5.57;2.90;;;19.20;99.90;;;;;;5001199;28;20218;-71
2022/06/20 05:15:24;;;;;;;7.13;3.53;;;19.20;99.90;;;;;;5005565;28;20237;-71
2022/06/20 05:17:53;;;;;;;6.77;3.30;;;19.00;99.90;;;;;;5003137;28;20197;-71
2022/06/20 05:20:25;;;;;;;4.03;2.93;;;18.80;99.90;;;;;;5000250;28;20214;-71
2022/06/20 05:22:59;;;;;;;6.97;3.63;;;18.80;99.90;;;;;;5005284;28;20201;-71
2022/06/20 05:25:30;;;;;;;6.07;3.50;;;18.80;99.90;;;;;;4999097;28;20197;-71
2022/06/20 05:28:00;;;;;;;5.90;3.17;;;18.70;99.90;;;;;;5002986;28;20296;-71
2022/06/20 05:30:33;;;;;;;5.00;3.30;;;18.80;99.90;;;;;;5004191;28;20226;-71
2022/06/20 05:33:06;;;;;;;4.23;3.07;;;18.80;99.90;;;;;;5001486;28;20600;-71
2022/06/20 05:35:40;;;;;;;7.60;2.97;;;18.80;99.90;;;;;;5002580;28;20289;-71
2022/06/20 05:38:15;;;;;;;5.33;3.23;;;18.80;99.90;;;;;;4999319;28;20323;-72
2022/06/20 05:40:47;;;;;;;6.50;3.60;;;18.80;99.90;;;;;;4999310;28;20233;-72
2022/06/20 05:43:18;;;;;;;5.47;3.20;;;18.80;99.90;;;;;;4998620;28;20190;-72
2022/06/20 05:45:48;;;;;;;4.33;3.47;;;18.80;99.90;;;;;;5004904;28;20220;-71
2022/06/20 05:48:15;;;;;;;6.93;3.80;;;18.80;99.90;;;;;;5002519;28;20190;-72
2022/06/20 05:50:49;;;;;;;6.37;3.63;;;18.80;99.90;;;;;;5003573;28;20247;-71
2022/06/20 05:53:24;;;;;;;4.97;3.60;;;18.80;99.90;;;;;;4998604;28;20189;-71
2022/06/20 05:55:55;;;;;;;7.83;4.10;;;18.80;99.90;;;;;;5000596;28;20243;-70
2022/06/20 05:58:25;;;;;;;7.33;3.73;;;18.70;99.90;;;;;;5007734;28;20204;-71
2022/06/20 06:00:54;;;;;;;5.57;4.00;;;18.70;99.90;;;;;;5000829;28;20571;-71
2022/06/20 06:03:28;;;;;;;7.10;3.80;;;18.70;99.90;;;;;;5008363;28;20201;-71
2022/06/20 06:06:00;;;;;;;9.10;3.90;;;18.70;99.90;;;;;;5017526;28;20208;-70
2022/06/20 06:08:34;;;;;;;7.73;4.00;;;18.80;99.90;;;;;;5016258;28;20295;-71
2022/06/20 06:11:07;;;;;;;7.37;4.20;;;18.80;99.90;;;;;;5010194;28;20228;-70
2022/06/20 06:13:42;;;;;;;5.50;3.90;;;18.70;99.90;;;;;;5006291;28;20209;-71
2022/06/20 06:16:48;;;;;;;7.53;4.40;;;18.60;99.90;;;;;;5006689;28;20652;-71
2022/06/20 06:19:23;;;;;;;4.03;3.63;;;18.50;99.90;;;;;;5003715;28;20737;-71
2022/06/20 06:22:29;;;;;;;5.17;4.07;;;18.40;99.90;;;;;;5008787;28;20534;-71
2022/06/20 06:24:59;;;;;;;9.13;5.00;;;18.30;99.90;;;;;;5006454;28;20632;-71
2022/06/20 06:28:07;;;;;;;6.07;3.90;;;18.40;99.90;;;;;;5008277;28;20573;-71
2022/06/20 06:30:40;;;;;;;8.70;6.03;;;18.40;99.90;;;;;;5014645;28;20225;-71
2022/06/20 06:33:20;;;;;;;7.03;4.63;;;18.40;99.90;;;;;;5004905;28;20212;-71
2022/06/20 06:35:51;;;;;;;6.83;4.20;;;18.40;99.90;;;;;;4997932;28;20236;-71
2022/06/20 06:38:25;;;;;;;6.13;4.43;;;18.40;99.90;;;;;;5000046;28;20226;-71
2022/06/20 06:40:56;;;;;;;5.90;4.37;;;18.40;99.90;;;;;;4998504;28;20233;-70
2022/06/20 06:43:28;;;;;;;5.83;4.10;;;18.40;99.90;;;;;;4999932;28;20252;-71
2022/06/20 06:45:58;;;;;;;6.10;4.20;;;18.50;99.90;;;;;;5002623;28;20213;-70
2022/06/20 06:48:32;;;;;;;9.87;5.13;;;18.50;99.90;;;;;;5003420;28;20193;-71
2022/06/20 06:51:05;;;;;;;6.73;4.70;;;18.50;99.90;;;;;;5000224;28;20222;-70
2022/06/20 06:53:38;;;;;;;6.17;4.60;;;18.50;99.90;;;;;;4999608;28;20197;-71
2022/06/20 06:59:16;;;;;;;5.70;4.60;;;18.50;99.90;;;;;;4959018;28;20245;-70
2022/06/20 07:01:48;;;;;;;8.10;5.00;;;18.70;99.90;;;;;;4966063;28;20871;-70
2022/06/20 07:04:20;;;;;;;6.00;4.70;;;18.80;99.90;;;;;;4965279;28;20756;-70
2022/06/20 07:06:51;;;;;;;5.47;4.93;;;18.90;99.90;;;;;;4965870;28;20206;-70
2022/06/20 07:09:24;;;;;;;6.43;4.50;;;18.90;99.90;;;;;;4957835;28;20206;-72
2022/06/20 07:15:15;;;;;;;5.33;4.50;;;18.80;99.90;;;;;;4966161;28;20286;-70
2022/06/20 07:18:03;;;;;;;4.50;4.10;;;18.80;99.90;;;;;;5002733;28;20572;-70
2022/06/20 07:20:34;;;;;;;4.13;3.73;;;18.80;99.90;;;;;;5005570;28;20212;-70
2022/06/20 07:26:27;;;;;;;4.10;3.70;;;18.80;99.90;;;;;;5009906;28;20197;-70
2022/06/20 07:29:00;;;;;;;3.87;3.43;;;18.80;99.90;;;;;;5011612;28;20245;-70
2022/06/20 07:31:32;;;;;;;6.47;3.50;;;18.80;99.90;;;;;;5003838;28;20216;-71
2022/06/20 07:34:09;;;;;;;4.87;3.43;;;18.80;99.90;;;;;;5011021;28;20294;-71
2022/06/20 07:39:18;;;;;;;3.60;3.30;;;18.80;99.90;;;;;;5832544;23;20244;-71
2022/06/20 07:41:50;;;;;;;3.93;3.37;;;18.80;99.90;;;;;;4971133;28;20206;-71
2022/06/20 07:44:24;;;;;;;3.93;3.47;;;18.70;99.90;;;;;;4969956;28;20211;-71
2022/06/20 07:46:56;;;;;;;4.87;3.87;;;18.70;99.90;;;;;;4955971;28;20200;-70
2022/06/20 07:49:28;;;;;;;4.87;3.80;;;18.70;99.90;;;;;;4968377;28;20208;-71
2022/06/20 07:52:00;;;;;;;4.63;3.80;;;18.70;99.90;;;;;;4971170;28;20227;-71
2022/06/20 07:54:32;;;;;;;4.33;3.30;;;18.60;99.90;;;;;;4960065;28;20196;-71
2022/06/20 07:57:02;;;;;;;6.80;3.17;;;18.60;99.90;;;;;;4961928;28;20584;-70
2022/06/20 07:59:33;;;;;;;3.27;2.83;;;18.60;99.90;;;;;;4964674;28;20195;-70
2022/06/20 08:02:08;;;;;;;3.17;2.90;;;18.50;99.90;;;;;;4957985;28;20798;-70
2022/06/20 08:04:38;;;;;;;6.07;2.90;;;18.50;99.90;;;;;;4968341;28;20287;-70
2022/06/20 08:07:11;;;;;;;3.63;3.30;;;18.50;99.90;;;;;;4966890;28;20211;-71
2022/06/20 08:09:45;;;;;;;4.43;3.50;;;18.60;99.90;;;;;;4960135;28;20692;-70
2022/06/20 08:12:19;;;;;;;5.43;3.60;;;18.60;99.90;;;;;;4959121;28;20226;-71
2022/06/20 08:14:51;;;;;;;4.27;3.37;;;18.70;99.90;;;;;;4957365;28;20674;-71
2022/06/20 08:17:22;;;;;;;3.67;3.37;;;18.80;99.90;;;;;;4963538;28;20203;-71
2022/06/20 08:19:51;;;;;;;4.23;3.50;;;18.80;99.90;;;;;;4959774;28;20202;-71
2022/06/20 08:22:27;;;;;;;3.90;3.43;;;18.80;99.90;;;;;;4961496;28;20240;-70
2022/06/20 08:24:58;;;;;;;3.37;3.07;;;18.80;99.90;;;;;;4963183;28;20657;-71
2022/06/20 08:27:31;;;;;;;4.00;3.57;;;18.80;99.90;;;;;;4966867;28;20214;-71
2022/06/20 08:30:07;;;;;;;3.53;3.07;;;18.90;99.90;;;;;;4963638;28;20835;-71
2022/06/20 08:32:41;;;;;;;6.50;3.70;;;18.90;99.90;;;;;;4959357;28;20606;-71
2022/06/20 08:35:17;;;;;;;4.27;3.50;;;18.90;99.90;;;;;;4963611;28;20206;-71
2022/06/20 08:37:50;;;;;;;6.60;4.60;;;18.90;99.90;;;;;;4962672;28;20207;-71
2022/06/20 08:40:51;;;;;;;3.77;3.47;;;18.80;99.90;;;;;;4962363;28;20234;-71
2022/06/20 08:43:45;;;;;;;3.70;3.40;;;18.70;99.90;;;;;;4963584;28;20207;-71
2022/06/20 08:46:36;;;;;;;4.90;3.80;;;18.60;99.90;;;;;;4952929;28;20294;-71
2022/06/20 08:49:46;;;;;;;4.57;3.40;;;18.70;99.90;;;;;;4962600;28;20200;-71
2022/06/20 08:52:49;;;;;;;4.60;3.50;;;18.60;99.90;;;;;;4961302;28;20249;-71
2022/06/20 08:55:46;;;;;;;3.53;3.20;;;18.70;99.90;;;;;;4962717;28;20199;-71
2022/06/20 08:58:25;;;;;;;4.67;3.20;;;18.70;99.90;;;;;;4964332;28;20209;-71
2022/06/20 09:01:07;;;;;;;5.47;3.23;;;18.70;99.90;;;;;;4964246;28;20205;-71
2022/06/20 09:04:14;;;;;;;3.63;3.33;;;18.70;99.90;;;;;;4961850;28;20202;-71
2022/06/20 09:07:01;;;;;;;3.60;3.30;;;18.70;99.90;;;;;;4964516;28;20213;-71
2022/06/20 09:09:49;;;;;;;4.87;3.37;;;18.60;99.90;;;;;;4967639;28;20195;-71
2022/06/20 09:12:49;;;;;;;3.80;3.27;;;18.50;99.90;;;;;;4966232;28;20318;-71
2022/06/20 09:15:27;;;;;;;4.13;3.27;;;18.50;99.90;;;;;;4963725;28;20209;-71
2022/06/20 09:17:59;;;;;;;4.33;3.20;;;18.60;99.90;;;;;;4960445;28;20674;-71
2022/06/20 09:20:34;;;;;;;4.30;3.90;;;18.60;99.90;;;;;;4956753;28;20230;-71
2022/06/20 09:23:13;;;;;;;5.93;3.63;;;18.60;99.90;;;;;;4955911;28;20207;-71
2022/06/20 09:25:51;;;;;;;4.77;4.30;;;18.50;99.90;;;;;;4963457;28;20210;-71
2022/06/20 09:28:59;;;;;;;5.20;4.23;;;18.50;99.90;;;;;;4960882;28;20202;-71
2022/06/20 09:32:00;;;;;;;4.07;3.67;;;18.60;99.90;;;;;;4960473;28;20196;-71
2022/06/20 09:34:55;;;;;;;4.57;3.63;;;18.60;99.90;;;;;;4958849;28;20203;-71
2022/06/20 09:37:42;;;;;;;5.27;3.60;;;18.60;99.90;;;;;;4959555;28;20218;-71
2022/06/20 09:40:20;;;;;;;3.60;3.30;;;18.60;99.90;;;;;;4964332;28;20260;-71
2022/06/20 09:42:56;;;;;;;5.47;3.83;;;18.60;99.90;;;;;;4960829;28;20298;-71
2022/06/20 09:45:31;;;;;;;3.77;3.40;;;18.60;99.90;;;;;;4960204;28;20191;-71
2022/06/20 09:48:10;;;;;;;3.73;3.33;;;18.70;99.90;;;;;;4958012;28;20601;-71
2022/06/20 09:50:47;;;;;;;3.50;3.00;;;18.60;99.90;;;;;;4960991;28;20563;-71
2022/06/20 09:53:25;;;;;;;5.37;3.33;;;18.60;99.90;;;;;;4961684;28;20253;-71
2022/06/20 09:56:01;;;;;;;3.93;3.53;;;18.60;99.90;;;;;;4960720;28;20187;-71
2022/06/20 09:58:37;;;;;;;4.37;3.53;;;18.60;99.90;;;;;;4961486;28;20665;-71
2022/06/20 10:01:13;;;;;;;3.60;3.07;;;18.60;99.90;;;;;;4961965;28;20203;-71
2022/06/20 10:03:43;;;;;;;4.43;3.87;;;18.50;99.90;;;;;;4964277;28;20234;-71
2022/06/20 10:06:19;;;;;;;4.33;3.63;;;18.50;99.90;;;;;;4960684;28;20201;-71
2022/06/20 10:08:58;;;;;;;4.23;3.93;;;18.60;99.90;;;;;;4960027;28;20225;-78
2022/06/20 10:11:30;;;;;;;5.20;3.57;;;18.50;99.90;;;;;;4960517;28;20211;-71
2022/06/20 10:14:08;;;;;;;6.00;3.77;;;18.60;99.90;;;;;;4956178;28;20578;-71
2022/06/20 10:16:44;;;;;;;3.83;3.50;;;18.50;99.90;;;;;;4958520;28;20267;-71
2022/06/20 10:19:19;;;;;;;4.67;3.47;;;18.50;99.90;;;;;;4959490;28;20561;-71
2022/06/20 10:21:52;;;;;;;3.93;3.57;;;18.40;99.90;;;;;;4960425;28;20935;-71
2022/06/20 10:24:42;;;;;;;4.27;3.20;;;18.40;99.90;;;;;;4968753;28;20294;-71
2022/06/20 10:27:42;;;;;;;4.23;3.83;;;18.30;99.90;;;;;;4953075;28;20199;-71
2022/06/20 10:30:13;;;;;;;3.77;3.47;;;18.30;99.90;;;;;;4964212;28;20203;-71
2022/06/20 10:33:23;;;;;;;3.90;3.60;;;18.30;99.90;;;;;;4962856;28;20324;-71
2022/06/20 10:35:57;;;;;;;4.13;3.77;;;18.30;99.90;;;;;;4952243;28;20207;-71
2022/06/20 10:38:32;;;;;;;3.70;3.13;;;18.30;99.90;;;;;;4960751;28;20571;-71
2022/06/20 10:41:26;;;;;;;3.10;2.90;;;18.30;99.90;;;;;;4961600;28;20618;-72
2022/06/20 10:44:01;;;;;;;3.30;3.00;;;18.20;99.90;;;;;;4959793;28;20219;-71
2022/06/20 10:46:39;;;;;;;4.23;3.50;;;18.20;99.90;;;;;;4961103;28;20196;-71
2022/06/20 10:49:45;;;;;;;5.37;3.63;;;18.20;99.90;;;;;;4960522;28;20202;-72
2022/06/20 10:52:25;;;;;;;4.10;3.70;;;18.10;99.90;;;;;;4949496;28;20362;-71
2022/06/20 10:55:04;;;;;;;5.00;3.23;;;18.10;99.90;;;;;;4961574;28;20206;-71
2022/06/20 10:57:47;;;;;;;3.67;3.37;;;18.10;99.90;;;;;;4966033;28;20222;-71
2022/06/20 11:00:16;;;;;;;4.17;3.30;;;18.00;99.90;;;;;;4964465;28;20213;-71
2022/06/20 11:03:03;;;;;;;3.87;3.50;;;18.00;99.90;;;;;;4963164;28;20294;-72
2022/06/20 11:05:39;;;;;;;3.17;2.80;;;17.90;99.90;;;;;;4959587;28;20203;-71
2022/06/20 11:08:19;;;;;;;4.60;3.40;;;17.90;99.90;;;;;;4958937;28;20622;-71
2022/06/20 11:10:57;;;;;;;2.90;2.70;;;18.00;99.90;;;;;;4963897;28;20214;-72
2022/06/20 11:13:31;;;;;;;4.20;3.03;;;18.00;99.90;;;;;;4961947;28;20604;-71
2022/06/20 11:16:11;;;;;;;3.50;2.97;;;18.10;99.90;;;;;;4962907;28;20206;-72
2022/06/20 11:18:56;;;;;;;3.40;3.07;;;18.10;99.90;;;;;;4967650;28;20202;-71
2022/06/20 11:21:32;;;;;;;3.20;2.90;;;18.20;99.90;;;;;;4960529;28;20194;-71
2022/06/20 11:24:16;;;;;;;3.40;3.00;;;18.20;99.90;;;;;;4964423;28;20581;-71
2022/06/20 11:26:53;;;;;;;4.10;3.33;;;18.20;99.90;;;;;;4965589;28;20193;-72
2022/06/20 11:29:36;;;;;;;3.17;2.87;;;18.20;99.90;;;;;;4963244;28;20222;-72
2022/06/20 11:32:11;;;;;;;3.30;3.00;;;18.20;99.90;;;;;;4965887;28;20211;-72
2022/06/20 11:35:14;;;;;;;4.63;2.93;;;18.30;99.90;;;;;;4967021;28;20209;-71
2022/06/20 11:38:08;;;;;;;2.60;2.40;;;18.30;99.90;;;;;;4950663;28;20203;-70
2022/06/20 11:40:51;;;;;;;2.63;2.37;;;18.20;99.90;;;;;;4963706;28;20239;-70
2022/06/20 11:43:46;;;;;;;3.00;2.07;;;18.20;99.90;;;;;;4967043;28;20222;-70
2022/06/20 11:46:29;;;;;;;2.50;1.80;;;18.10;99.90;;;;;;4962723;28;20192;-71
2022/06/20 11:49:08;;;;;;;2.10;2.00;;;18.10;99.90;;;;;;4961562;28;20218;-71
2022/06/20 11:51:45;;;;;;;1.73;1.60;;;18.10;99.90;;;;;;4966408;28;20202;-71
2022/06/20 11:54:26;;;;;;;2.13;2.00;;;18.10;99.90;;;;;;4960611;28;20218;-71
2022/06/20 11:57:00;;;;;;;2.67;1.73;;;18.00;99.90;;;;;;4957902;28;20199;-71
2022/06/20 11:59:40;;;;;;;2.23;1.90;;;18.00;99.90;;;;;;4966865;28;20205;-71
2022/06/20 12:02:20;;;;;;;2.27;1.80;;;18.00;99.90;;;;;;4959056;28;20211;-71
2022/06/20 12:04:55;;;;;;;1.67;1.57;;;17.90;99.90;;;;;;4971239;28;20206;-71
2022/06/20 12:07:29;;;;;;;2.50;1.80;;;17.60;99.90;;;;;;4971446;28;20198;-71
2022/06/20 12:10:03;;;;;;;2.07;1.53;;;17.60;99.90;;;;;;4952678;29;20411;-71
2022/06/20 12:12:44;;;;;;;2.27;2.07;;;17.40;99.90;;;;;;4969413;28;20313;-71
2022/06/20 12:15:37;;;;;;;1.73;1.63;;;17.30;99.90;;;;;;4964417;28;20554;-71
2022/06/20 12:18:25;;;;;;;2.87;2.13;;;17.00;99.90;;;;;;4971118;28;20210;-71
2022/06/20 12:23:46;;;;;;;2.43;1.90;;;16.70;99.90;;;;;;4962183;28;20676;-71
2022/06/20 12:26:17;;;;;;;1.70;1.60;;;16.80;99.90;;;;;;4973303;28;20226;-71
2022/06/20 12:28:46;;;;;;;2.50;1.77;;;16.70;99.90;;;;;;4960482;28;20207;-72
2022/06/20 12:31:18;;;;;;;2.10;1.60;;;16.70;99.90;;;;;;4970412;28;20680;-71
2022/06/20 12:33:48;;;;;;;2.53;1.90;;;16.60;99.90;;;;;;4980475;28;20230;-71
2022/06/20 12:36:31;;;;;;;2.07;1.93;;;16.60;99.90;;;;;;4971278;28;20721;-71
2022/06/20 12:39:04;;;;;;;1.97;1.43;;;16.60;99.90;;;;;;4960140;28;20238;-71
2022/06/20 12:41:37;;;;;;;2.17;1.30;;;16.60;99.90;;;;;;4967857;28;20218;-72
2022/06/20 12:44:26;;;;;;;1.50;1.40;;;16.50;99.90;;;;;;4962890;28;20303;-72
2022/06/20 12:47:03;;;;;;;2.00;1.30;;;16.40;99.90;;;;;;4952200;29;20208;-72
2022/06/20 12:49:58;;;;;;;1.97;1.10;;;16.30;99.90;;;;;;4962331;28;20207;-71
2022/06/20 12:52:36;;;;;;;1.53;1.43;;;16.10;99.90;;;;;;4971071;28;20206;-72
2022/06/20 12:55:20;;;;;;;1.53;1.20;;;16.00;99.90;;;;;;4970858;28;20632;-72
2022/06/20 12:58:25;;;;;;;2.77;1.30;;;16.10;99.90;;;;;;4971019;28;20673;-72
2022/06/20 13:00:55;;;;;;;1.30;1.20;;;16.10;99.90;;;;;;4933065;29;20215;-71
2022/06/20 13:03:46;;;;;;;0.83;0.83;;;16.00;99.90;;;;;;4962575;28;20687;-71
2022/06/20 13:06:35;;;;;;;1.00;0.90;;;16.00;99.90;;;;;;4970744;28;20282;-71
2022/06/20 13:09:32;;;;;;;3.33;1.10;;;15.90;99.90;;;;;;4957706;28;20207;-71
2022/06/20 13:12:10;;;;;;;2.20;0.93;;;16.00;99.90;;;;;;4954238;28;20210;-71
2022/06/20 13:15:04;;;;;;;1.00;1.00;;;16.30;99.90;;;;;;4966954;28;20218;-71
2022/06/20 13:17:41;;;;;;;1.33;1.20;;;16.40;99.90;;;;;;4940487;28;20207;-71
2022/06/20 13:20:34;;;;;;;1.67;0.97;;;16.40;99.90;;;;;;4969993;28;20210;-71
2022/06/20 13:23:25;;;;;;;2.23;1.00;;;16.60;99.90;;;;;;4970338;28;20286;-71
2022/06/20 13:25:56;;;;;;;2.20;1.33;;;16.60;99.90;;;;;;4951682;29;20562;-71
2022/06/20 13:28:30;;;;;;;1.27;1.00;;;16.60;99.90;;;;;;4951775;28;20199;-71
2022/06/20 13:31:10;;;;;;;1.00;1.00;;;16.50;99.90;;;;;;4970171;28;20218;-71
2022/06/20 13:33:43;;;;;;;0.90;0.90;;;16.50;99.90;;;;;;4970682;28;20293;-71
2022/06/20 13:36:28;;;;;;;1.40;1.40;;;16.70;99.90;;;;;;4970522;28;20199;-71
2022/06/20 13:39:03;;;;;;;1.00;1.00;;;16.80;99.90;;;;;;4953801;28;20732;-71
2022/06/20 13:41:40;;;;;;;2.73;1.33;;;16.80;99.90;;;;;;4966246;28;20208;-71
2022/06/20 13:44:27;;;;;;;1.23;1.23;;;16.80;99.90;;;;;;4970123;28;20241;-71
2022/06/20 13:47:00;;;;;;;2.97;1.73;;;16.90;99.90;;;;;;4970447;28;20222;-71
2022/06/20 13:49:34;;;;;;;4.30;2.23;;;17.00;99.90;;;;;;4961254;28;20588;-71
2022/06/20 13:52:08;;;;;;;2.57;2.13;;;16.90;99.90;;;;;;4960352;28;20581;-79
2022/06/20 13:54:40;;;;;;;2.80;2.60;;;16.80;99.90;;;;;;4969571;28;20236;-80
2022/06/20 13:57:15;;;;;;;2.60;2.40;;;16.70;99.90;;;;;;4969313;28;20393;-79
2022/06/20 13:59:53;;;;;;;3.57;2.80;;;16.60;99.90;;;;;;4958912;28;20207;-79
2022/06/20 14:02:39;;;;;;;3.30;2.93;;;16.70;99.90;;;;;;4951061;29;20203;-79
2022/06/20 14:05:15;;;;;;;7.03;3.27;;;16.60;99.90;;;;;;4983035;28;20296;-79